createdAt,value
2023-05-07T00:02:18.757Z,4.82
2023-05-07T00:04:46.611Z,4.25
2023-05-07T00:07:13.634Z,4.40
2023-05-07T00:09:41.186Z,4.03
2023-05-07T00:12:08.578Z,4.63
2023-05-07T00:14:35.769Z,3.78
2023-05-07T00:17:02.760Z,4.35
2023-05-07T00:19:29.908Z,4.45
2023-05-07T00:21:57.426Z,3.72
2023-05-07T00:24:24.462Z,5.10
2023-05-07T00:26:51.297Z,3.78
2023-05-07T00:29:18.209Z,4.53
2023-05-07T00:31:45.306Z,3.67
2023-05-07T00:34:12.329Z,4.05
2023-05-07T00:36:39.202Z,4.35
2023-05-07T00:39:06.397Z,4.20
2023-05-07T00:41:33.320Z,3.95
2023-05-07T00:44:00.313Z,4.70
2023-05-07T00:46:27.456Z,4.13
2023-05-07T00:48:55.377Z,4.75
2023-05-07T00:51:22.488Z,4.82
2023-05-07T00:53:49.737Z,4.63
2023-05-07T00:56:17.107Z,4.05
2023-05-07T00:58:44.423Z,4.53
2023-05-07T01:01:11.576Z,4.45
2023-05-07T01:03:38.592Z,4.35
2023-05-07T01:06:08.610Z,4.72
2023-05-07T01:08:36.674Z,3.92
2023-05-07T01:11:04.838Z,4.38
2023-05-07T01:13:32.496Z,4.68
2023-05-07T01:15:59.816Z,4.45
2023-05-07T01:18:27.777Z,4.65
2023-05-07T01:20:57.007Z,4.78
2023-05-07T01:23:24.198Z,4.50
2023-05-07T01:25:54.829Z,5.00
2023-05-07T01:28:23.887Z,5.00
2023-05-07T01:31:02.663Z,5.28
2023-05-07T01:33:32.889Z,5.80
2023-05-07T01:36:03.385Z,5.70
2023-05-07T01:38:31.251Z,6.30
2023-05-07T01:40:59.281Z,6.82
2023-05-07T01:43:26.559Z,6.22
2023-05-07T01:45:54.180Z,6.50
2023-05-07T01:48:21.801Z,6.00
2023-05-07T01:50:49.694Z,5.45
2023-05-07T01:53:17.402Z,4.78
2023-05-07T01:55:44.494Z,5.25
2023-05-07T01:58:12.010Z,5.22
2023-05-07T02:00:39.165Z,4.93
2023-05-07T02:03:07.967Z,4.55
2023-05-07T02:05:55.258Z,3.95
2023-05-07T02:08:34.697Z,4.60
2023-05-07T02:11:02.597Z,4.53
2023-05-07T02:13:34.000Z,5.40
2023-05-07T02:16:01.947Z,4.72
2023-05-07T02:18:28.951Z,4.90
2023-05-07T02:20:55.998Z,4.72
2023-05-07T02:23:22.980Z,5.07
2023-05-07T02:25:50.440Z,4.60
2023-05-07T02:28:18.163Z,4.63
2023-05-07T02:30:52.096Z,4.82
2023-05-07T02:33:19.883Z,5.35
2023-05-07T02:35:47.235Z,5.05
2023-05-07T02:38:15.976Z,5.57
2023-05-07T02:40:43.989Z,5.60
2023-05-07T02:43:11.065Z,5.40
2023-05-07T02:45:39.017Z,5.65
2023-05-07T02:48:08.317Z,5.03
2023-05-07T02:50:35.465Z,4.97
2023-05-07T02:53:02.519Z,5.03
2023-05-07T02:55:29.817Z,5.13
2023-05-07T02:57:56.930Z,6.05
2023-05-07T03:00:25.557Z,5.10
2023-05-07T03:03:18.815Z,5.20
2023-05-07T03:05:45.833Z,5.78
2023-05-07T03:08:12.723Z,5.63
2023-05-07T03:10:40.320Z,5.30
2023-05-07T03:13:07.516Z,5.78
2023-05-07T03:15:34.745Z,5.40
2023-05-07T03:18:02.268Z,5.85
2023-05-07T03:20:29.271Z,5.38
2023-05-07T03:22:56.763Z,5.15
2023-05-07T03:25:23.616Z,5.40
2023-05-07T03:27:50.605Z,5.68
2023-05-07T03:30:21.216Z,8.00
2023-05-07T03:32:48.075Z,6.18
2023-05-07T03:35:15.257Z,4.72
2023-05-07T03:37:42.581Z,4.82
2023-05-07T03:40:13.524Z,4.82
2023-05-07T03:42:48.139Z,11.40
2023-05-07T03:45:16.848Z,8.88
2023-05-07T03:47:48.645Z,8.45
2023-05-07T03:50:18.885Z,5.05
2023-05-07T03:52:46.355Z,15.75
2023-05-07T03:55:15.285Z,11.38
2023-05-07T03:57:48.910Z,7.40
2023-05-07T04:00:16.090Z,5.07
2023-05-07T04:02:49.090Z,4.10
2023-05-07T04:05:22.447Z,4.60
2023-05-07T04:07:52.687Z,4.32
2023-05-07T04:10:25.728Z,4.60
2023-05-07T04:12:55.972Z,5.03
2023-05-07T04:15:24.747Z,5.28
2023-05-07T04:17:51.904Z,4.60
2023-05-07T04:20:21.594Z,5.22
2023-05-07T04:22:54.986Z,5.13
2023-05-07T04:25:21.955Z,5.47
2023-05-07T04:27:50.138Z,5.22
2023-05-07T04:30:18.111Z,6.10
2023-05-07T04:32:45.614Z,5.70
2023-05-07T04:35:12.990Z,6.65
2023-05-07T04:37:40.086Z,6.32
2023-05-07T04:40:08.582Z,6.60
2023-05-07T04:42:35.926Z,6.60
2023-05-07T04:45:04.176Z,6.38
2023-05-07T04:47:33.570Z,7.35
2023-05-07T04:50:02.673Z,6.93
2023-05-07T04:52:29.566Z,8.70
2023-05-07T04:54:56.972Z,8.63
2023-05-07T04:57:24.128Z,8.82
2023-05-07T04:59:51.259Z,7.70
2023-05-07T05:02:20.160Z,7.30
2023-05-07T05:04:48.148Z,8.45
2023-05-07T05:07:15.469Z,9.52
2023-05-07T05:09:42.568Z,9.27
2023-05-07T05:12:10.447Z,10.05
2023-05-07T05:14:38.849Z,11.27
2023-05-07T05:17:07.057Z,11.18
2023-05-07T05:19:37.462Z,10.45
2023-05-07T05:22:05.013Z,10.52
2023-05-07T05:24:32.508Z,11.02
2023-05-07T05:29:55.649Z,10.10
2023-05-07T05:32:23.859Z,10.55
2023-05-07T05:35:26.597Z,11.23
2023-05-07T05:37:53.797Z,12.90
2023-05-07T05:40:21.584Z,11.80
2023-05-07T05:42:48.590Z,11.23
2023-05-07T05:45:17.588Z,10.90
2023-05-07T05:47:45.790Z,9.68
2023-05-07T05:50:13.173Z,6.65
2023-05-07T05:52:41.873Z,6.97
2023-05-07T05:55:09.999Z,5.13
2023-05-07T05:57:38.419Z,5.57
2023-05-07T06:00:06.345Z,3.95
2023-05-07T06:02:46.064Z,3.67
2023-05-07T06:05:18.899Z,3.35
2023-05-07T06:07:47.783Z,3.03
2023-05-07T06:10:15.757Z,3.72
2023-05-07T06:12:43.069Z,3.00
2023-05-07T06:15:10.878Z,2.92
2023-05-07T06:17:38.578Z,3.05
2023-05-07T06:20:07.670Z,2.33
2023-05-07T06:22:34.490Z,2.30
2023-05-07T06:25:01.578Z,2.15
2023-05-07T06:27:29.199Z,2.00
2023-05-07T06:29:57.709Z,2.55
2023-05-07T06:32:24.662Z,2.30
2023-05-07T06:34:52.342Z,2.17
2023-05-07T06:37:19.821Z,2.03
2023-05-07T06:39:54.394Z,2.45
2023-05-07T06:42:21.482Z,2.15
2023-05-07T06:44:50.654Z,1.77
2023-05-07T06:47:18.719Z,1.88
2023-05-07T06:49:50.500Z,1.50
2023-05-07T06:52:19.548Z,1.55
2023-05-07T06:54:48.548Z,1.67
2023-05-07T06:57:17.547Z,1.48
2023-05-07T06:59:44.733Z,1.83
2023-05-07T07:02:12.448Z,1.40
2023-05-07T07:04:39.818Z,2.10
2023-05-07T07:07:10.364Z,1.83
2023-05-07T07:09:37.388Z,1.55
2023-05-07T07:12:06.119Z,1.38
2023-05-07T07:14:34.090Z,1.92
2023-05-07T07:17:01.335Z,1.70
2023-05-07T07:19:28.525Z,1.10
2023-05-07T07:21:56.631Z,1.35
2023-05-07T07:24:23.546Z,1.50
2023-05-07T07:29:27.638Z,1.33
2023-05-07T07:31:55.197Z,1.25
2023-05-07T07:34:22.439Z,2.15
2023-05-07T07:36:50.502Z,1.38
2023-05-07T07:39:19.138Z,1.15
2023-05-07T07:41:48.842Z,1.30
2023-05-07T07:44:16.865Z,1.63
2023-05-07T07:46:48.596Z,1.40
2023-05-07T07:49:16.133Z,2.08
2023-05-07T07:51:44.343Z,1.45
2023-05-07T07:54:12.879Z,1.90
2023-05-07T07:56:41.222Z,1.50
2023-05-07T07:59:09.475Z,1.58
2023-05-07T08:01:39.249Z,1.30
2023-05-07T08:04:07.010Z,1.50
2023-05-07T08:06:38.941Z,1.13
2023-05-07T08:09:06.451Z,1.27
2023-05-07T08:11:33.936Z,1.67
2023-05-07T08:14:03.412Z,1.17
2023-05-07T08:16:31.254Z,1.40
2023-05-07T08:19:00.031Z,1.50
2023-05-07T08:21:27.590Z,1.30
2023-05-07T08:23:55.047Z,1.20
2023-05-07T08:26:22.087Z,1.05
2023-05-07T08:28:49.183Z,0.85
2023-05-07T08:31:16.264Z,1.25
2023-05-07T08:33:45.143Z,1.10
2023-05-07T08:36:12.120Z,1.15
2023-05-07T08:38:41.928Z,1.25
2023-05-07T08:41:11.459Z,1.00
2023-05-07T08:43:42.558Z,1.20
2023-05-07T08:46:12.463Z,1.30
2023-05-07T08:48:43.158Z,1.20
2023-05-07T08:52:09.773Z,1.15
2023-05-07T08:54:30.639Z,1.10
2023-05-07T08:56:58.435Z,1.60
2023-05-07T08:59:25.755Z,0.95
2023-05-07T09:01:53.206Z,1.10
2023-05-07T09:04:20.426Z,1.30
2023-05-07T09:06:49.125Z,1.13
2023-05-07T09:09:19.079Z,1.10
2023-05-07T09:11:46.086Z,1.00
2023-05-07T09:14:15.608Z,1.00
2023-05-07T09:16:44.819Z,0.80
2023-05-07T09:19:12.519Z,0.90
2023-05-07T09:21:44.252Z,1.10
2023-05-07T09:24:12.562Z,1.08
2023-05-07T09:26:42.320Z,0.80
2023-05-07T09:29:11.535Z,0.98
2023-05-07T09:31:39.704Z,0.90
2023-05-07T09:34:09.322Z,1.15
2023-05-07T09:36:39.728Z,1.00
2023-05-07T09:39:10.244Z,0.90
2023-05-07T09:41:45.189Z,0.90
2023-05-07T09:46:55.009Z,1.00
2023-05-07T09:49:33.925Z,0.82
2023-05-07T09:52:07.542Z,0.75
2023-05-07T09:54:38.889Z,1.30
2023-05-07T09:57:08.603Z,0.90
2023-05-07T09:59:37.948Z,1.13
2023-05-07T10:02:11.481Z,1.10
2023-05-07T10:04:47.305Z,0.90
2023-05-07T10:07:17.688Z,0.95
2023-05-07T10:09:49.167Z,1.95
2023-05-07T10:12:25.432Z,1.00
2023-05-07T10:14:55.657Z,1.10
2023-05-07T10:17:24.537Z,1.10
2023-05-07T10:19:54.324Z,1.08
2023-05-07T10:22:23.469Z,0.80
2023-05-07T10:24:54.195Z,1.25
2023-05-07T10:27:23.659Z,0.90
2023-05-07T10:30:22.051Z,1.10
2023-05-07T10:32:56.407Z,1.60
2023-05-07T10:35:33.888Z,1.00
2023-05-07T10:38:05.070Z,1.00
2023-05-07T10:40:34.637Z,1.30
2023-05-07T10:43:07.764Z,1.30
2023-05-07T10:45:45.449Z,1.10
2023-05-07T10:48:29.819Z,0.98
2023-05-07T10:51:24.818Z,1.10
2023-05-07T10:54:12.309Z,1.10
2023-05-07T10:56:48.836Z,1.15
2023-05-07T10:59:21.139Z,1.10
2023-05-07T11:02:00.145Z,1.02
2023-05-07T11:05:22.286Z,1.15
2023-05-07T11:08:15.493Z,1.08
2023-05-07T11:11:11.725Z,1.05
2023-05-07T11:13:51.612Z,1.10
2023-05-07T11:16:28.766Z,1.10
2023-05-07T11:19:15.349Z,1.00
2023-05-07T11:21:47.281Z,1.52
2023-05-07T11:24:41.973Z,1.20
2023-05-07T11:27:09.732Z,1.10
2023-05-07T11:29:37.552Z,1.10
2023-05-07T11:32:11.552Z,1.05
2023-05-07T11:34:46.627Z,1.10
2023-05-07T11:37:18.562Z,1.00
2023-05-07T11:40:05.150Z,1.10
2023-05-07T11:42:34.859Z,1.10
2023-05-07T11:45:02.667Z,1.10
2023-05-07T11:47:32.368Z,1.33
2023-05-07T11:50:05.288Z,0.90
2023-05-07T11:52:32.218Z,0.98
2023-05-07T11:55:01.262Z,1.30
2023-05-07T11:57:28.919Z,1.10
2023-05-07T12:00:00.871Z,1.02
2023-05-07T12:02:28.025Z,0.90
2023-05-07T12:04:58.851Z,1.00
2023-05-07T12:07:26.165Z,1.05
2023-05-07T12:09:53.253Z,1.10
2023-05-07T12:12:20.364Z,1.15
2023-05-07T12:14:47.924Z,1.10
2023-05-07T12:17:15.913Z,1.10
2023-05-07T12:19:44.711Z,1.30
2023-05-07T12:22:12.051Z,1.40
2023-05-07T12:24:49.852Z,1.00
2023-05-07T12:27:18.437Z,1.15
2023-05-07T12:29:50.747Z,1.13
2023-05-07T12:32:19.417Z,0.90
2023-05-07T12:34:47.152Z,1.00
2023-05-07T12:37:14.423Z,1.10
2023-05-07T12:40:04.663Z,1.00
2023-05-07T12:42:37.645Z,1.13
2023-05-07T12:45:17.515Z,1.00
2023-05-07T12:47:46.348Z,1.45
2023-05-07T12:50:15.316Z,1.95
2023-05-07T12:52:43.896Z,1.35
2023-05-07T12:55:14.972Z,1.25
2023-05-07T12:57:44.238Z,0.98
2023-05-07T13:00:12.012Z,1.20
2023-05-07T13:02:41.526Z,1.20
2023-05-07T13:05:10.043Z,0.90
2023-05-07T13:07:38.151Z,1.13
2023-05-07T13:10:06.185Z,1.25
2023-05-07T13:12:33.730Z,1.13
2023-05-07T13:15:00.657Z,0.98
2023-05-07T13:17:27.668Z,0.82
2023-05-07T13:19:54.723Z,1.23
2023-05-07T13:22:21.738Z,1.00
2023-05-07T13:24:48.659Z,1.00
2023-05-07T13:27:16.645Z,1.08
2023-05-07T13:29:43.618Z,1.30
2023-05-07T13:32:10.710Z,1.13
2023-05-07T13:34:38.272Z,1.10
2023-05-07T13:37:05.328Z,1.00
2023-05-07T13:39:32.664Z,1.00
2023-05-07T13:41:59.491Z,0.80
2023-05-07T13:44:27.065Z,1.10
2023-05-07T13:46:54.100Z,1.30
2023-05-07T13:49:21.094Z,1.70
2023-05-07T13:51:47.917Z,2.45
2023-05-07T13:54:14.906Z,1.15
2023-05-07T13:56:41.873Z,1.05
2023-05-07T13:59:09.399Z,1.10
2023-05-07T14:01:36.724Z,1.05
2023-05-07T14:04:03.801Z,1.00
2023-05-07T14:06:30.899Z,1.27
2023-05-07T14:08:59.136Z,1.02
2023-05-07T14:11:26.644Z,1.15
2023-05-07T14:13:53.428Z,1.25
2023-05-07T14:16:20.461Z,1.10
2023-05-07T14:18:47.401Z,1.08
2023-05-07T14:21:15.098Z,1.05
2023-05-07T14:23:42.088Z,3.60
2023-05-07T14:26:08.908Z,1.80
2023-05-07T14:28:36.047Z,1.63
2023-05-07T14:31:02.939Z,2.05
2023-05-07T14:33:30.137Z,1.10
2023-05-07T14:35:56.889Z,1.30
2023-05-07T14:38:23.920Z,1.25
2023-05-07T14:40:50.722Z,1.20
2023-05-07T14:43:17.788Z,1.17
2023-05-07T14:45:44.546Z,1.10
2023-05-07T14:48:16.169Z,0.90
2023-05-07T14:50:43.672Z,1.05
2023-05-07T14:53:10.713Z,1.30
2023-05-07T14:55:37.514Z,0.90
2023-05-07T14:58:04.979Z,1.13
2023-05-07T15:00:31.989Z,1.13
2023-05-07T15:03:11.320Z,1.10
2023-05-07T15:05:42.546Z,1.02
2023-05-07T15:08:09.495Z,1.10
2023-05-07T15:10:41.872Z,1.40
2023-05-07T15:13:12.663Z,1.17
2023-05-07T15:15:43.078Z,1.20
2023-05-07T15:18:10.360Z,1.00
2023-05-07T15:20:38.486Z,1.05
2023-05-07T15:23:07.471Z,1.30
2023-05-07T15:25:34.990Z,1.33
2023-05-07T15:28:02.084Z,1.30
2023-05-07T15:30:29.146Z,1.27
2023-05-07T15:32:56.932Z,1.20
2023-05-07T15:35:24.401Z,1.20
2023-05-07T15:37:51.303Z,0.98
2023-05-07T15:40:19.256Z,1.02
2023-05-07T15:42:46.612Z,1.05
2023-05-07T15:45:14.107Z,1.20
2023-05-07T15:47:41.654Z,1.15
2023-05-07T15:50:09.032Z,1.20
2023-05-07T15:52:36.187Z,1.10
2023-05-07T15:55:03.689Z,1.10
2023-05-07T15:57:30.912Z,0.93
2023-05-07T15:59:57.892Z,1.10
2023-05-07T16:02:25.166Z,1.40
2023-05-07T16:04:54.423Z,1.42
2023-05-07T16:10:42.784Z,0.90
2023-05-07T16:13:09.860Z,1.15
2023-05-07T16:15:36.788Z,1.40
2023-05-07T16:18:04.553Z,0.90
2023-05-07T16:20:31.642Z,1.10
2023-05-07T16:22:59.163Z,0.98
2023-05-07T16:25:26.076Z,0.80
2023-05-07T16:27:54.428Z,0.98
2023-05-07T16:30:21.374Z,0.95
2023-05-07T16:32:48.408Z,1.20
2023-05-07T16:35:15.463Z,1.05
2023-05-07T16:38:01.161Z,1.15
2023-05-07T16:40:28.192Z,1.17
2023-05-07T16:42:55.738Z,1.40
2023-05-07T16:45:24.795Z,1.00
2023-05-07T16:47:51.917Z,1.55
2023-05-07T16:50:18.837Z,1.33
2023-05-07T16:52:45.937Z,1.80
2023-05-07T16:55:13.243Z,2.00
2023-05-07T16:57:40.357Z,1.63
2023-05-07T17:00:08.150Z,2.00
2023-05-07T17:02:35.779Z,2.33
2023-05-07T17:05:06.443Z,2.10
2023-05-07T17:07:33.512Z,1.80
2023-05-07T17:10:00.568Z,1.30
2023-05-07T17:12:43.083Z,1.63
2023-05-07T17:18:26.536Z,1.95
2023-05-07T17:20:53.479Z,1.92
2023-05-07T17:21:15.581Z,2.40
2023-05-07T17:23:20.394Z,1.98
2023-05-07T17:25:51.472Z,2.00
2023-05-07T17:28:18.903Z,2.08
2023-05-07T17:30:46.691Z,2.20
2023-05-07T17:33:21.139Z,2.15
2023-05-07T17:35:49.639Z,2.40
2023-05-07T17:38:16.556Z,2.75
2023-05-07T17:40:43.553Z,2.20
2023-05-07T17:43:10.528Z,2.05
2023-05-07T17:45:37.535Z,2.85
2023-05-07T17:48:05.205Z,3.28
2023-05-07T17:50:32.249Z,4.97
2023-05-07T17:52:59.355Z,4.63
2023-05-07T17:55:27.620Z,5.13
2023-05-07T17:57:56.590Z,4.80
2023-05-07T18:00:23.707Z,4.10
2023-05-07T18:02:53.554Z,4.35
2023-05-07T18:05:20.709Z,3.78
2023-05-07T18:07:47.561Z,4.93
2023-05-07T18:10:14.757Z,4.28
2023-05-07T18:12:41.898Z,4.45
2023-05-07T18:15:09.873Z,4.53
2023-05-07T18:17:37.289Z,4.72
2023-05-07T18:20:11.997Z,4.40
2023-05-07T18:22:39.452Z,4.10
2023-05-07T18:25:07.050Z,3.28
2023-05-07T18:27:34.038Z,4.70
2023-05-07T18:30:01.242Z,4.03
2023-05-07T18:32:28.293Z,4.70
2023-05-07T18:34:56.343Z,4.63
2023-05-07T18:37:26.117Z,4.13
2023-05-07T18:39:53.791Z,5.05
2023-05-07T18:42:20.983Z,6.18
2023-05-07T18:44:47.789Z,4.78
2023-05-07T18:47:14.732Z,5.07
2023-05-07T18:49:45.264Z,6.72
2023-05-07T18:52:12.048Z,6.40
2023-05-07T18:54:39.114Z,6.10
2023-05-07T18:57:06.000Z,4.72
2023-05-07T18:59:33.059Z,5.20
2023-05-07T19:02:00.109Z,5.72
2023-05-07T19:04:27.233Z,4.93
2023-05-07T19:06:54.739Z,3.50
2023-05-07T19:09:23.692Z,3.30
2023-05-07T19:11:50.722Z,3.28
2023-05-07T19:14:17.751Z,3.20
2023-05-07T19:16:44.937Z,3.33
2023-05-07T19:19:11.860Z,2.70
2023-05-07T19:21:38.686Z,2.10
2023-05-07T19:24:05.987Z,2.10
2023-05-07T19:26:32.940Z,2.30
2023-05-07T19:29:17.500Z,1.77
2023-05-07T19:31:46.244Z,2.13
2023-05-07T19:34:15.979Z,1.60
2023-05-07T19:36:52.276Z,2.08
2023-05-07T19:39:43.718Z,1.92
2023-05-07T19:42:10.789Z,1.92
2023-05-07T19:44:37.723Z,1.60
2023-05-07T19:47:05.887Z,1.90
2023-05-07T19:49:32.757Z,1.83
2023-05-07T19:51:59.637Z,1.80
2023-05-07T19:54:26.636Z,1.90
2023-05-07T19:56:59.581Z,2.13
2023-05-07T19:59:27.508Z,1.70
2023-05-07T20:01:57.488Z,1.88
2023-05-07T20:04:32.406Z,1.70
2023-05-07T20:06:59.850Z,1.63
2023-05-07T20:09:26.718Z,1.45
2023-05-07T20:11:53.554Z,1.70
2023-05-07T20:14:20.641Z,1.48
2023-05-07T20:16:47.865Z,1.40
2023-05-07T20:19:14.938Z,1.52
2023-05-07T20:21:42.796Z,1.70
2023-05-07T20:24:29.193Z,1.92
2023-05-07T20:26:56.200Z,1.63
2023-05-07T20:29:23.981Z,1.38
2023-05-07T20:32:27.009Z,1.40
2023-05-07T20:35:37.263Z,1.83
2023-05-07T20:38:05.174Z,2.40
2023-05-07T20:40:34.486Z,4.00
2023-05-07T20:43:03.743Z,6.00
2023-05-07T20:48:36.912Z,5.78
2023-05-07T20:51:04.018Z,4.47
2023-05-07T20:51:38.144Z,6.18
2023-05-07T20:53:34.498Z,3.78
2023-05-07T20:56:23.991Z,3.45
2023-05-07T20:59:26.763Z,3.85
2023-05-07T21:01:59.604Z,3.08
2023-05-07T21:04:26.620Z,2.50
2023-05-07T21:06:53.595Z,2.42
2023-05-07T21:09:20.640Z,2.58
2023-05-07T21:11:47.918Z,2.72
2023-05-07T21:14:14.941Z,2.80
2023-05-07T21:16:43.223Z,2.40
2023-05-07T21:19:10.920Z,2.53
2023-05-07T21:21:37.834Z,3.20
2023-05-07T21:24:05.903Z,2.67
2023-05-07T21:26:33.075Z,3.25
2023-05-07T21:28:59.928Z,3.50
2023-05-07T21:31:26.900Z,3.17
2023-05-07T21:33:54.142Z,3.00
2023-05-07T21:36:20.974Z,2.72
2023-05-07T21:38:50.469Z,2.65
2023-05-07T21:41:17.354Z,2.88
2023-05-07T21:43:44.542Z,2.72
2023-05-07T21:46:11.503Z,2.80
2023-05-07T21:48:38.867Z,2.75
2023-05-07T21:51:07.440Z,2.72
2023-05-07T21:53:35.320Z,2.92
2023-05-07T21:56:03.029Z,2.63
2023-05-07T21:58:31.145Z,2.35
2023-05-07T22:00:58.773Z,2.30
2023-05-07T22:03:25.744Z,2.50
2023-05-07T22:05:52.905Z,2.33
2023-05-07T22:08:19.988Z,2.92
2023-05-07T22:10:46.849Z,2.20
2023-05-07T22:13:13.871Z,2.70
2023-05-07T22:15:49.565Z,2.63
2023-05-07T22:18:23.563Z,2.80
2023-05-07T22:20:53.487Z,2.47
2023-05-07T22:23:20.694Z,2.40
2023-05-07T22:25:47.733Z,2.88
2023-05-07T22:28:14.617Z,3.33
2023-05-07T22:30:41.759Z,2.88
2023-05-07T22:33:08.981Z,2.67
2023-05-07T22:35:35.871Z,3.47
2023-05-07T22:38:02.969Z,4.38
2023-05-07T22:40:30.197Z,4.50
2023-05-07T22:42:57.331Z,4.53
2023-05-07T22:45:24.182Z,5.07
2023-05-07T22:47:51.356Z,4.68
2023-05-07T22:50:18.424Z,4.18
2023-05-07T22:52:45.256Z,3.53
2023-05-07T22:55:12.127Z,3.40
2023-05-07T22:57:39.219Z,3.30
2023-05-07T23:00:06.887Z,2.70
2023-05-07T23:02:34.067Z,2.47
2023-05-07T23:05:01.719Z,2.78
2023-05-07T23:07:28.755Z,2.50
2023-05-07T23:09:55.931Z,2.50
2023-05-07T23:12:23.013Z,1.92
2023-05-07T23:14:49.893Z,2.00
2023-05-07T23:17:17.073Z,2.30
2023-05-07T23:19:44.033Z,2.08
2023-05-07T23:22:11.112Z,2.22
2023-05-07T23:24:38.265Z,1.80
2023-05-07T23:27:08.687Z,1.77
2023-05-07T23:29:35.743Z,2.40
2023-05-07T23:32:02.851Z,2.33
2023-05-07T23:34:29.816Z,2.58
2023-05-07T23:36:57.948Z,2.10
2023-05-07T23:39:25.036Z,3.40
2023-05-07T23:41:52.008Z,2.88
2023-05-07T23:44:19.134Z,2.25
2023-05-07T23:46:46.393Z,2.40
2023-05-07T23:49:13.667Z,2.58
2023-05-07T23:51:40.569Z,2.85
2023-05-07T23:54:07.542Z,2.03
2023-05-07T23:56:34.487Z,2.20
2023-05-07T23:59:01.426Z,2.78
